Time;durP1;ratioP1;P1;durP2;ratioP2;P2;SDS_P1;SDS_P2;PMS_P1;PMS_P2;Temp;Humidity;BMP_temperature;BMP_pressure;BME280_temperature;BME280_humidity;BME280_pressure;Samples;Min_cycle;Max_cycle;Signal;HPM_P1;HPM_P2
2024/02/26 00:01:37;;;;;;;1.13;0.70;;;;;;;8.01;100.00;96881.84;5010568;28;20029;-78
2024/02/26 00:04:02;;;;;;;1.33;0.80;;;;;;;8.11;100.00;96895.53;5005958;28;20027;-78
2024/02/26 00:06:29;;;;;;;1.92;0.80;;;;;;;8.09;100.00;96884.19;5009950;28;20022;-77
2024/02/26 00:08:54;;;;;;;1.52;0.70;;;;;;;8.15;100.00;96906.69;5001483;28;20101;-78
2024/02/26 00:11:19;;;;;;;1.90;0.88;;;;;;;8.05;100.00;96909.94;5015114;28;20042;-78
2024/02/26 00:13:45;;;;;;;3.40;0.85;;;;;;;7.97;100.00;96915.69;5003517;28;20032;-79
2024/02/26 00:16:10;;;;;;;2.45;0.70;;;;;;;7.75;100.00;96904.66;5000990;28;20026;-79
2024/02/26 00:18:35;;;;;;;1.80;0.90;;;;;;;7.73;100.00;96895.16;5004307;28;20036;-77
2024/02/26 00:21:02;;;;;;;2.35;0.77;;;;;;;7.78;100.00;96922.22;5004602;28;20029;-77
2024/02/26 00:23:27;;;;;;;2.08;0.95;;;;;;;7.64;100.00;96918.91;5007046;28;20026;-79
2024/02/26 00:25:52;;;;;;;2.70;1.10;;;;;;;7.54;100.00;96903.31;5005367;28;20344;-79
2024/02/26 00:28:19;;;;;;;2.00;0.82;;;;;;;7.50;100.00;96915.63;4998236;28;20034;-78
2024/02/26 00:30:45;;;;;;;1.48;0.90;;;;;;;7.51;100.00;96913.72;5005553;28;20356;-78
2024/02/26 00:33:10;;;;;;;1.92;0.88;;;;;;;7.44;100.00;96908.44;5006219;28;20036;-78
2024/02/26 00:35:36;;;;;;;1.88;0.73;;;;;;;7.47;100.00;96913.38;5003646;28;20101;-78
2024/02/26 00:38:03;;;;;;;1.60;0.80;;;;;;;7.38;100.00;96909.38;5009057;28;20245;-78
2024/02/26 00:40:28;;;;;;;1.73;0.70;;;;;;;7.31;100.00;96892.50;5004516;28;20018;-78
2024/02/26 00:42:53;;;;;;;2.95;0.95;;;;;;;7.35;100.00;96896.38;5009869;28;20018;-77
2024/02/26 00:45:19;;;;;;;2.33;0.88;;;;;;;7.29;100.00;96903.50;5005545;28;20128;-79
2024/02/26 00:47:45;;;;;;;1.58;1.10;;;;;;;7.32;100.00;96910.28;5018539;28;20328;-79
2024/02/26 00:50:10;;;;;;;1.88;0.80;;;;;;;7.39;100.00;96906.47;5008285;28;20256;-76
2024/02/26 00:52:36;;;;;;;1.33;0.80;;;;;;;7.17;100.00;96886.50;5007543;28;20112;-76
2024/02/26 00:55:02;;;;;;;1.77;0.73;;;;;;;7.20;100.00;96896.78;5002306;28;20030;-77
2024/02/26 00:57:27;;;;;;;1.45;0.82;;;;;;;7.11;100.00;96885.53;4999907;28;20014;-77
2024/02/26 00:59:55;;;;;;;3.05;0.80;;;;;;;7.00;100.00;96886.34;5002751;28;20021;-76
2024/02/26 01:02:20;;;;;;;3.75;0.80;;;;;;;7.03;100.00;96899.31;5000819;28;20084;-76
2024/02/26 01:04:45;;;;;;;2.75;0.90;;;;;;;6.87;100.00;96867.69;5005024;28;20022;-77
2024/02/26 01:07:11;;;;;;;1.95;0.80;;;;;;;7.00;100.00;96891.72;5005061;28;20048;-77
2024/02/26 01:09:36;;;;;;;1.63;0.88;;;;;;;7.01;100.00;96885.28;4999230;28;20060;-76
2024/02/26 01:12:02;;;;;;;1.70;0.82;;;;;;;7.02;100.00;96878.84;5007582;28;20026;-77
2024/02/26 01:14:28;;;;;;;2.28;0.90;;;;;;;7.12;100.00;96892.56;5001701;28;20047;-77
2024/02/26 01:16:53;;;;;;;1.38;0.82;;;;;;;7.14;100.00;96908.47;5005213;28;20494;-77
2024/02/26 01:19:18;;;;;;;1.08;0.68;;;;;;;7.00;100.00;96880.94;5004589;28;20316;-77
2024/02/26 01:21:44;;;;;;;1.90;0.90;;;;;;;7.09;100.00;96892.19;5005524;28;20028;-77
2024/02/26 01:24:09;;;;;;;1.92;0.80;;;;;;;7.06;100.00;96887.28;5002833;28;20025;-77
2024/02/26 01:26:34;;;;;;;1.85;0.80;;;;;;;7.00;100.00;96889.03;5013475;28;20022;-77
2024/02/26 01:29:00;;;;;;;2.05;0.75;;;;;;;7.16;100.00;96909.88;4999008;28;20136;-77
2024/02/26 01:31:25;;;;;;;3.08;0.82;;;;;;;7.15;100.00;96908.25;5006081;28;20036;-76
2024/02/26 01:33:51;;;;;;;2.33;0.82;;;;;;;7.28;100.00;96909.09;5003835;28;20029;-76
2024/02/26 01:36:16;;;;;;;1.10;0.70;;;;;;;7.03;100.00;96892.06;5009850;28;20029;-76
2024/02/26 01:38:41;;;;;;;1.95;0.65;;;;;;;7.27;100.00;96929.00;5003254;28;20026;-76
2024/02/26 01:41:07;;;;;;;3.65;0.82;;;;;;;7.16;100.00;96914.44;5019458;28;20025;-76
2024/02/26 01:43:32;;;;;;;1.85;0.90;;;;;;;7.20;100.00;96937.13;5003148;28;20028;-76
2024/02/26 01:45:58;;;;;;;1.40;0.70;;;;;;;7.07;100.00;96921.19;4997192;28;20026;-76
2024/02/26 01:48:24;;;;;;;1.60;0.70;;;;;;;7.00;100.00;96929.34;5007680;28;20018;-76
2024/02/26 01:50:49;;;;;;;1.15;0.68;;;;;;;7.03;100.00;96926.19;5000716;28;20022;-77
2024/02/26 01:53:16;;;;;;;0.88;0.57;;;;;;;7.09;100.00;96911.03;5007653;28;20021;-77
2024/02/26 01:55:41;;;;;;;1.58;0.77;;;;;;;6.99;100.00;96896.25;5003693;28;20022;-76
2024/02/26 01:58:07;;;;;;;3.03;0.80;;;;;;;7.03;100.00;96884.00;5017132;28;20031;-77
2024/02/26 02:00:32;;;;;;;4.07;0.90;;;;;;;6.89;100.00;96885.25;5020236;28;20068;-76
2024/02/26 02:02:58;;;;;;;2.85;1.20;;;;;;;6.99;100.00;96893.56;5021668;28;20052;-79
2024/02/26 02:05:24;;;;;;;1.83;1.00;;;;;;;7.05;100.00;96889.16;5008565;28;20049;-78
2024/02/26 02:07:51;;;;;;;1.55;0.80;;;;;;;6.99;100.00;96887.34;5002258;28;20108;-79
2024/02/26 02:10:18;;;;;;;2.90;0.90;;;;;;;6.96;100.00;96867.13;4999822;28;20043;-80
2024/02/26 02:12:43;;;;;;;1.58;0.88;;;;;;;7.02;100.00;96878.84;4999497;28;20309;-79
2024/02/26 02:15:09;;;;;;;1.13;0.70;;;;;;;6.88;100.00;96837.06;4994530;28;20028;-79
2024/02/26 02:17:34;;;;;;;1.42;0.82;;;;;;;7.06;100.00;96874.66;5004114;28;20022;-79
2024/02/26 02:19:59;;;;;;;3.05;1.20;;;;;;;7.18;100.00;96913.19;5001579;28;20018;-79
2024/02/26 02:22:25;;;;;;;1.05;0.70;;;;;;;7.12;100.00;96911.38;5000936;28;20321;-78
2024/02/26 02:24:52;;;;;;;2.67;0.90;;;;;;;7.01;100.00;96907.59;5004410;28;20045;-78
2024/02/26 02:27:17;;;;;;;3.38;0.70;;;;;;;6.98;100.00;96929.56;5002806;28;20043;-78
2024/02/26 02:29:43;;;;;;;1.52;0.70;;;;;;;7.00;100.00;96910.53;5002984;28;20042;-78
2024/02/26 02:32:09;;;;;;;1.73;0.82;;;;;;;6.95;100.00;96900.44;5003930;28;20018;-78
2024/02/26 02:34:35;;;;;;;1.33;0.75;;;;;;;6.94;100.00;96911.41;5006670;28;20025;-78
2024/02/26 02:37:00;;;;;;;1.63;0.80;;;;;;;6.76;100.00;96913.09;5006650;28;20018;-78
2024/02/26 02:39:26;;;;;;;3.42;1.00;;;;;;;6.96;100.00;96928.16;5005492;28;20034;-78
2024/02/26 02:41:51;;;;;;;1.60;0.90;;;;;;;6.78;100.00;96910.97;5007138;28;20021;-78
2024/02/26 02:44:16;;;;;;;2.88;0.70;;;;;;;6.73;100.00;96916.25;4997102;28;20022;-78
2024/02/26 02:46:41;;;;;;;2.05;1.00;;;;;;;6.69;100.00;96920.41;5005414;28;20033;-78
2024/02/26 02:49:10;;;;;;;1.52;0.90;;;;;;;6.69;100.00;96924.97;5000305;28;20065;-79
2024/02/26 02:51:36;;;;;;;3.13;1.25;;;;;;;6.73;100.00;96935.06;4995513;28;20309;-79
2024/02/26 02:54:01;;;;;;;2.05;1.10;;;;;;;6.77;100.00;96952.34;5001754;28;20148;-79
2024/02/26 02:56:26;;;;;;;1.45;0.90;;;;;;;6.78;100.00;96942.41;5000745;28;20222;-79
2024/02/26 02:58:52;;;;;;;2.45;1.00;;;;;;;6.75;100.00;96950.94;5005890;28;20041;-79
2024/02/26 03:01:17;;;;;;;3.83;1.10;;;;;;;6.69;100.00;96928.47;4999716;28;20032;-79
2024/02/26 03:03:42;;;;;;;2.67;1.05;;;;;;;6.78;100.00;96937.03;5003534;28;20026;-79
2024/02/26 03:06:08;;;;;;;2.15;1.08;;;;;;;6.74;100.00;96958.19;5003974;28;20068;-79
2024/02/26 03:08:36;;;;;;;2.20;1.10;;;;;;;6.76;100.00;96950.72;5015302;28;20018;-79
2024/02/26 03:11:02;;;;;;;3.15;1.15;;;;;;;6.65;100.00;96938.03;5014092;28;20097;-80
2024/02/26 03:13:27;;;;;;;2.35;1.15;;;;;;;6.70;100.00;96962.34;5005258;28;20057;-79
2024/02/26 03:15:52;;;;;;;2.63;1.10;;;;;;;6.58;100.00;96938.09;5001198;28;20085;-79
2024/02/26 03:18:17;;;;;;;3.17;1.33;;;;;;;6.74;100.00;96968.94;5019519;28;20194;-79
2024/02/26 03:20:43;;;;;;;2.30;1.15;;;;;;;6.55;100.00;96938.56;5005248;28;20032;-79
2024/02/26 03:23:11;;;;;;;1.75;0.90;;;;;;;6.76;100.00;96971.41;5001470;28;20081;-79
2024/02/26 03:25:37;;;;;;;2.33;0.88;;;;;;;6.69;100.00;96976.84;5002714;28;20018;-79
2024/02/26 03:28:02;;;;;;;2.17;1.10;;;;;;;6.68;100.00;96964.47;5033241;23;20191;-77
2024/02/26 03:30:27;;;;;;;1.77;0.82;;;;;;;6.77;100.00;96973.84;5042513;28;20016;-78
2024/02/26 03:32:53;;;;;;;1.23;0.90;;;;;;;6.80;100.00;96984.16;5050844;28;20020;-78
2024/02/26 03:35:18;;;;;;;2.05;1.13;;;;;;;6.78;100.00;96980.03;5055305;28;20036;-78
2024/02/26 03:37:45;;;;;;;2.40;1.23;;;;;;;6.74;100.00;96963.56;5045388;28;20186;-77
2024/02/26 03:40:12;;;;;;;1.52;0.70;;;;;;;6.74;100.00;96950.13;5028434;28;20021;-78
2024/02/26 03:42:38;;;;;;;1.75;1.05;;;;;;;6.87;100.00;96951.84;5040151;28;20027;-77
2024/02/26 03:45:03;;;;;;;3.10;0.93;;;;;;;6.82;100.00;96964.31;5020255;28;20045;-77
2024/02/26 03:47:29;;;;;;;1.33;0.80;;;;;;;6.68;100.00;96950.19;5026022;28;20093;-77
2024/02/26 03:49:54;;;;;;;1.35;0.90;;;;;;;6.81;100.00;96968.84;5023386;28;20013;-77
2024/02/26 03:52:19;;;;;;;3.00;1.20;;;;;;;6.94;100.00;96982.16;5024269;28;20022;-78
2024/02/26 03:54:44;;;;;;;2.10;1.10;;;;;;;6.89;100.00;96982.00;5034530;28;20024;-78
2024/02/26 03:57:10;;;;;;;2.97;1.17;;;;;;;6.76;100.00;96966.03;5041116;28;20040;-80
2024/02/26 03:59:35;;;;;;;2.60;1.30;;;;;;;6.74;100.00;96968.94;5016704;28;20233;-79
2024/02/26 04:02:02;;;;;;;5.35;1.40;;;;;;;6.59;100.00;96947.81;5020311;28;20029;-80
2024/02/26 04:04:34;;;;;;;3.97;1.85;;;;;;;6.61;100.00;96952.97;5023337;28;20021;-80
2024/02/26 04:07:00;;;;;;;4.93;1.70;;;;;;;6.58;100.00;96939.97;5014911;28;20217;-79
2024/02/26 04:09:26;;;;;;;2.88;1.55;;;;;;;6.56;100.00;96932.13;5048270;28;20406;-77
2024/02/26 04:11:55;;;;;;;2.03;1.05;;;;;;;6.37;100.00;96930.50;5042569;28;20025;-79
2024/02/26 04:14:20;;;;;;;;;;;;;;;6.34;100.00;96942.50;5044344;28;20037;-78
2024/02/26 04:16:51;;;;;;;3.05;1.10;;;;;;;6.33;100.00;96940.84;5056483;22;19905;-65
2024/02/26 04:19:16;;;;;;;3.08;1.10;;;;;;;6.31;100.00;96932.22;5027709;28;20540;-65
2024/02/26 04:21:42;;;;;;;2.25;0.80;;;;;;;6.36;100.00;96935.03;5028781;28;20113;-63
2024/02/26 04:24:07;;;;;;;1.60;0.90;;;;;;;6.33;100.00;96932.78;5029309;28;20053;-63
2024/02/26 04:26:33;;;;;;;1.65;1.00;;;;;;;6.28;100.00;96935.31;5012035;28;20028;-63
2024/02/26 04:28:59;;;;;;;2.83;1.00;;;;;;;6.33;100.00;96931.97;5010036;28;20040;-63
2024/02/26 04:31:24;;;;;;;3.13;0.93;;;;;;;6.31;100.00;96936.72;5010373;28;20499;-66
2024/02/26 04:33:50;;;;;;;2.50;1.10;;;;;;;6.29;100.00;96942.34;5010677;28;20061;-63
2024/02/26 04:36:16;;;;;;;1.85;1.08;;;;;;;6.30;100.00;96943.16;5010384;28;20445;-65
2024/02/26 04:38:42;;;;;;;1.27;0.85;;;;;;;6.27;100.00;96947.09;5009592;28;20040;-63
2024/02/26 04:41:08;;;;;;;1.90;0.80;;;;;;;6.31;100.00;96959.06;5012117;28;20350;-63
2024/02/26 04:43:33;;;;;;;1.60;0.82;;;;;;;6.25;100.00;96953.75;5011866;28;20108;-63
2024/02/26 04:45:58;;;;;;;3.83;0.98;;;;;;;6.27;100.00;96947.09;5012029;28;20485;-63
2024/02/26 04:48:24;;;;;;;1.60;0.70;;;;;;;6.22;100.00;96936.22;5009133;28;20033;-64
2024/02/26 04:50:50;;;;;;;1.52;0.73;;;;;;;6.20;100.00;96924.88;5013888;28;20026;-64
2024/02/26 04:53:15;;;;;;;0.82;0.65;;;;;;;6.21;100.00;96920.31;5015008;28;20026;-63
2024/02/26 04:55:40;;;;;;;1.70;0.82;;;;;;;6.24;100.00;96911.84;5014356;28;20121;-63
2024/02/26 04:58:06;;;;;;;1.25;0.52;;;;;;;6.30;100.00;96919.00;5002838;28;20076;-64
2024/02/26 05:00:31;;;;;;;2.88;0.70;;;;;;;6.32;100.00;96917.72;5013062;28;20033;-64
2024/02/26 05:02:57;;;;;;;1.23;0.70;;;;;;;6.34;100.00;96912.97;5015130;28;20025;-63
2024/02/26 05:05:22;;;;;;;1.63;0.55;;;;;;;6.39;100.00;96922.19;5012617;28;20022;-63
2024/02/26 05:07:48;;;;;;;1.10;0.60;;;;;;;6.26;100.00;96926.69;5013366;28;20282;-63
2024/02/26 05:10:13;;;;;;;1.80;0.70;;;;;;;6.21;100.00;96915.78;5013358;28;20014;-62
2024/02/26 05:12:38;;;;;;;1.27;0.60;;;;;;;6.16;100.00;96915.63;5013297;28;20032;-63
2024/02/26 05:15:04;;;;;;;1.15;0.65;;;;;;;6.24;100.00;96926.06;5011592;28;20030;-63
2024/02/26 05:17:30;;;;;;;0.93;0.68;;;;;;;6.27;100.00;96920.25;4993292;28;20038;-63
2024/02/26 05:19:55;;;;;;;2.13;0.85;;;;;;;6.24;100.00;96926.06;5009312;28;20038;-63
2024/02/26 05:22:21;;;;;;;1.23;0.60;;;;;;;6.22;100.00;96927.34;5013355;28;20462;-63
2024/02/26 05:24:48;;;;;;;1.10;0.70;;;;;;;6.28;100.00;96932.63;5012371;28;20026;-64
2024/02/26 05:27:14;;;;;;;1.13;0.82;;;;;;;6.22;100.00;96916.59;5015544;28;20033;-64
2024/02/26 05:29:39;;;;;;;3.00;0.90;;;;;;;6.29;100.00;96912.81;5013617;28;20030;-66
2024/02/26 05:32:07;;;;;;;5.30;1.88;;;;;;;6.27;100.00;96927.50;5011301;28;20040;-63
2024/02/26 05:34:33;;;;;;;3.47;0.95;;;;;;;6.28;100.00;96927.25;5010258;28;20073;-64
2024/02/26 05:36:58;;;;;;;1.27;0.65;;;;;;;6.28;100.00;96916.50;5010000;28;20052;-64
2024/02/26 05:39:25;;;;;;;2.13;1.17;;;;;;;6.32;100.00;96922.28;5013218;28;20040;-64
2024/02/26 05:41:50;;;;;;;2.45;1.10;;;;;;;6.32;100.00;96928.47;5011777;28;20030;-64
2024/02/26 05:44:18;;;;;;;1.50;0.90;;;;;;;6.34;100.00;96931.75;5011817;28;20029;-65
2024/02/26 05:46:43;;;;;;;5.50;3.08;;;;;;;6.33;100.00;96940.84;5012772;28;20092;-64
2024/02/26 05:49:09;;;;;;;5.13;3.22;;;;;;;6.37;100.00;96941.25;5006486;28;20026;-64
2024/02/26 05:51:34;;;;;;;1.58;0.70;;;;;;;6.42;100.00;96949.44;5003492;28;20045;-64
2024/02/26 05:53:59;;;;;;;1.50;0.80;;;;;;;6.45;100.00;96950.88;5012952;28;20032;-64
2024/02/26 05:56:25;;;;;;;1.65;0.80;;;;;;;6.37;100.00;96970.78;5006000;28;20026;-64
2024/02/26 05:58:51;;;;;;;1.38;0.70;;;;;;;6.32;100.00;96971.44;5011851;28;20409;-64
2024/02/26 06:01:17;;;;;;;1.70;0.63;;;;;;;6.38;100.00;96996.59;5011117;28;20101;-64
2024/02/26 06:03:43;;;;;;;1.52;0.85;;;;;;;6.46;100.00;96998.16;5012427;28;20026;-64
2024/02/26 06:06:14;;;;;;;1.52;0.80;;;;;;;6.47;100.00;97021.28;5010837;28;20040;-64
2024/02/26 06:08:40;;;;;;;2.47;1.17;;;;;;;6.47;100.00;97016.75;5009331;28;20034;-64
2024/02/26 06:11:07;;;;;;;3.30;1.25;;;;;;;6.44;100.00;97021.75;5011900;28;20733;-64
2024/02/26 06:13:33;;;;;;;1.52;0.90;;;;;;;6.33;100.00;97018.72;5013240;28;20037;-64
2024/02/26 06:15:58;;;;;;;5.00;1.20;;;;;;;6.41;100.00;97020.31;5009199;28;20026;-64
2024/02/26 06:18:23;;;;;;;3.00;1.10;;;;;;;6.29;100.00;97025.59;5009979;28;20436;-64
2024/02/26 06:20:49;;;;;;;7.65;1.40;;;;;;;6.28;100.00;97041.91;5011811;28;20110;-64
2024/02/26 06:23:14;;;;;;;3.25;1.98;;;;;;;6.30;100.00;97040.66;5010865;28;20026;-64
2024/02/26 06:25:42;;;;;;;2.72;1.48;;;;;;;6.26;100.00;97052.91;5012444;28;20036;-64
2024/02/26 06:28:07;;;;;;;3.38;1.40;;;;;;;6.25;100.00;97043.19;5015228;28;20781;-64
2024/02/26 06:30:33;;;;;;;3.00;1.42;;;;;;;6.27;100.00;97059.09;5013310;28;20104;-64
2024/02/26 06:32:58;;;;;;;2.80;1.38;;;;;;;6.22;100.00;97050.84;5011527;28;20062;-65
2024/02/26 06:35:24;;;;;;;4.70;1.60;;;;;;;6.24;100.00;97048.78;5007285;28;20034;-64
2024/02/26 06:37:52;;;;;;;3.92;1.75;;;;;;;6.26;100.00;97026.03;5010769;28;20030;-64
2024/02/26 06:40:18;;;;;;;5.53;2.22;;;;;;;6.15;100.00;97019.50;5010172;28;20362;-64
2024/02/26 06:42:44;;;;;;;5.20;2.42;;;;;;;6.17;100.00;97043.44;5011663;28;20049;-67
2024/02/26 06:45:10;;;;;;;9.77;3.45;;;;;;;6.19;100.00;97046.75;5013226;28;20067;-64
2024/02/26 06:47:35;;;;;;;6.32;2.58;;;;;;;6.18;100.00;97033.53;5010292;28;20025;-64
2024/02/26 06:50:01;;;;;;;6.40;3.13;;;;;;;6.15;100.00;97038.28;5018394;28;20393;-63
2024/02/26 06:52:26;;;;;;;7.47;3.67;;;;;;;6.18;100.00;97034.34;5008012;28;20038;-63
2024/02/26 06:54:52;;;;;;;9.27;3.20;;;;;;;6.23;100.00;97036.38;5011398;28;20021;-64
2024/02/26 06:57:22;;;;;;;5.20;2.45;;;;;;;6.27;100.00;97043.78;5008121;28;20148;-64
2024/02/26 06:59:47;;;;;;;;;;;;;;;6.33;100.00;97045.59;5011115;28;20362;-63
2024/02/26 07:02:13;;;;;;;4.65;1.50;;;;;;;6.38;100.00;97044.94;5010574;28;19920;-64
2024/02/26 07:04:40;;;;;;;4.40;2.03;;;;;;;6.31;100.00;97036.94;5005140;28;20030;-64
2024/02/26 07:07:05;;;;;;;4.10;1.58;;;;;;;6.30;100.00;97045.22;5009450;28;20034;-64
2024/02/26 07:09:31;;;;;;;4.63;1.73;;;;;;;6.31;100.00;97047.69;5008517;28;20018;-64
2024/02/26 07:11:57;;;;;;;4.18;1.52;;;;;;;6.29;100.00;97063.19;5010252;28;20112;-60
2024/02/26 07:14:22;;;;;;;5.90;1.80;;;;;;;6.43;100.00;97063.09;5009216;28;20076;-60
2024/02/26 07:16:48;;;;;;;3.05;1.80;;;;;;;6.54;100.00;97065.88;5009895;28;20037;-60
2024/02/26 07:19:13;;;;;;;4.85;2.00;;;;;;;6.59;100.00;97067.91;5010151;28;20374;-60
2024/02/26 07:21:39;;;;;;;5.07;1.75;;;;;;;6.56;100.00;97074.53;5010899;28;20040;-60
2024/02/26 07:24:05;;;;;;;3.45;1.65;;;;;;;6.62;100.00;97078.19;5008889;28;20075;-60
2024/02/26 07:26:30;;;;;;;4.28;1.90;;;;;;;6.63;100.00;97074.47;5010698;28;20121;-60
2024/02/26 07:28:56;;;;;;;3.45;1.58;;;;;;;6.75;100.00;97086.13;5015497;28;20033;-60
2024/02/26 07:31:21;;;;;;;4.80;2.15;;;;;;;6.83;100.00;97074.28;5009381;28;20030;-61
2024/02/26 07:33:47;;;;;;;7.57;2.88;;;;;;;7.03;100.00;97091.03;5009702;28;20097;-61
2024/02/26 07:36:12;;;;;;;7.40;3.42;;;;;;;7.16;100.00;97079.31;5010093;28;20041;-62
2024/02/26 07:38:37;;;;;;;6.90;3.10;;;;;;;7.45;100.00;97088.50;5010643;28;20113;-62
2024/02/26 07:41:03;;;;;;;5.93;2.50;;;;;;;7.46;100.00;97095.50;5011871;28;20029;-62
2024/02/26 07:43:29;;;;;;;4.35;2.10;;;;;;;7.54;100.00;97098.94;5010480;28;20037;-61
2024/02/26 07:45:55;;;;;;;4.15;1.83;;;;;;;7.54;100.00;97096.25;5010802;28;20377;-62
2024/02/26 07:48:20;;;;;;;6.32;2.85;;;;;;;7.59;100.00;97099.09;5010819;28;20076;-60
2024/02/26 07:50:45;;;;;;;4.32;2.28;;;;;;;7.63;100.00;97105.69;5009518;28;20076;-60
2024/02/26 07:53:11;;;;;;;4.40;2.33;;;;;;;7.65;100.00;97111.63;5009696;28;20047;-60
2024/02/26 07:55:36;;;;;;;3.85;1.95;;;;;;;7.69;100.00;97115.53;5010256;28;20161;-61
2024/02/26 07:58:02;;;;;;;4.25;1.77;;;;;;;7.84;100.00;97113.25;5009858;28;20021;-61
2024/02/26 08:00:28;;;;;;;5.38;1.98;;;;;;;7.85;100.00;97106.81;5009553;28;20482;-60
2024/02/26 08:02:53;;;;;;;4.22;1.75;;;;;;;8.04;100.00;97122.94;5004450;28;20057;-62
2024/02/26 08:05:19;;;;;;;5.65;1.95;;;;;;;8.09;100.00;97112.28;5004844;28;20026;-61
2024/02/26 08:07:45;;;;;;;4.18;1.90;;;;;;;8.18;100.00;97110.13;5009086;28;20034;-61
2024/02/26 08:10:13;;;;;;;5.30;2.42;;;;;;;8.19;100.00;97109.88;5009816;28;20022;-61
2024/02/26 08:12:38;;;;;;;11.00;4.93;;;;;;;8.29;100.00;97120.09;4992748;28;20351;-61
2024/02/26 08:15:04;;;;;;;13.18;7.38;;;;;;;8.47;100.00;97117.38;5008723;28;20040;-61
2024/02/26 08:17:30;;;;;;;9.30;5.25;;;;;;;8.42;100.00;97119.94;5008642;28;20520;-61
2024/02/26 08:19:57;;;;;;;8.35;4.10;;;;;;;8.59;100.00;97121.94;5006952;28;20065;-62
2024/02/26 08:22:22;;;;;;;4.45;2.90;;;;;;;8.67;100.00;97127.00;5008038;28;20105;-61
2024/02/26 08:24:47;;;;;;;2.60;1.40;;;;;;;8.88;100.00;97112.97;5012857;28;20529;-61
2024/02/26 08:27:13;;;;;;;3.65;1.90;;;;;;;8.89;100.00;97113.78;5011613;28;20037;-61
2024/02/26 08:29:38;;;;;;;5.70;2.30;;;;;;;8.96;100.00;97115.31;5014018;28;20049;-61
2024/02/26 08:32:05;;;;;;;4.80;1.98;;;;;;;9.36;100.00;97113.75;5014070;28;20076;-61
2024/02/26 08:34:31;;;;;;;2.97;2.00;;;;;;;9.26;100.00;97118.94;5013806;28;20378;-61
2024/02/26 08:36:56;;;;;;;3.38;1.60;;;;;;;9.43;100.00;97117.97;5013391;28;20072;-61
2024/02/26 08:39:21;;;;;;;2.55;1.38;;;;;;;9.54;100.00;97105.50;5014052;28;20060;-61
2024/02/26 08:41:47;;;;;;;1.92;1.30;;;;;;;9.34;100.00;97099.69;5013878;28;20036;-61
2024/02/26 08:44:12;;;;;;;3.75;1.20;;;;;;;9.25;100.00;97098.38;5014237;28;20505;-61
2024/02/26 08:46:39;;;;;;;2.38;1.35;;;;;;;9.07;100.00;97102.06;5011971;28;20096;-61
2024/02/26 08:49:04;;;;;;;2.47;1.55;;;;;;;8.93;100.00;97109.53;5013341;28;20054;-61
2024/02/26 08:51:30;;;;;;;3.25;1.60;;;;;;;8.99;100.00;97111.34;5014681;28;20065;-61
2024/02/26 08:53:55;;;;;;;2.75;1.30;;;;;;;9.32;100.00;97115.28;5015670;28;20068;-61
2024/02/26 08:56:22;;;;;;;4.00;1.50;;;;;;;9.54;100.00;97110.09;5013315;28;20043;-61
2024/02/26 08:58:48;;;;;;;2.17;1.50;;;;;;;9.75;100.00;97106.75;5008147;28;20531;-61
2024/02/26 09:01:15;;;;;;;3.85;1.40;;;;;;;9.66;100.00;97100.06;5014261;28;20485;-61
2024/02/26 09:03:40;;;;;;;1.73;1.35;;;;;;;9.76;100.00;97110.25;5013430;28;20050;-61
2024/02/26 09:06:06;;;;;;;2.60;1.90;;;;;;;9.74;100.00;97117.78;5013722;28;20072;-61
2024/02/26 09:08:32;;;;;;;3.80;2.17;;;;;;;9.86;100.00;97119.38;5012969;28;20030;-61
2024/02/26 09:10:58;;;;;;;4.53;2.05;;;;;;;9.85;100.00;97117.75;5012719;28;20026;-61
2024/02/26 09:13:23;;;;;;;2.50;1.60;;;;;;;10.00;100.00;97108.28;5014194;28;20068;-61
2024/02/26 09:15:49;;;;;;;2.42;1.40;;;;;;;10.21;100.00;97112.19;5014243;28;20113;-62
2024/02/26 09:18:14;;;;;;;2.67;1.17;;;;;;;10.12;100.00;97106.38;5011190;28;20034;-61
2024/02/26 09:20:41;;;;;;;2.70;1.50;;;;;;;10.08;100.00;97106.00;5012963;28;20109;-54
2024/02/26 09:23:06;;;;;;;6.22;1.95;;;;;;;10.20;100.00;97100.56;5013323;28;20556;-54
2024/02/26 09:25:33;;;;;;;8.23;2.08;;;;;;;10.30;100.00;97108.88;5013589;28;20083;-54
2024/02/26 09:27:59;;;;;;;3.35;1.50;;;;;;;10.46;100.00;97111.88;4993281;28;20732;-54
2024/02/26 09:30:25;;;;;;;2.45;1.67;;;;;;;10.91;100.00;97117.19;5079558;22;20045;-79
2024/02/26 09:32:50;;;;;;;3.10;1.83;;;;;;;11.02;100.00;97083.00;5062528;28;20032;-79
2024/02/26 09:35:19;;;;;;;3.15;1.70;;;;;;;11.48;100.00;97104.47;5071955;28;20047;-80
2024/02/26 09:37:44;;;;;;;3.58;1.52;;;;;;;11.83;100.00;97094.06;5039830;28;20074;-78
2024/02/26 09:40:14;;;;;;;2.20;1.48;;;;;;;12.13;100.00;97094.69;5043825;28;20033;-72
2024/02/26 09:42:43;;;;;;;2.63;1.23;;;;;;;12.44;100.00;97088.50;5045240;28;20025;-72
2024/02/26 09:45:21;;;;;;;1.63;1.10;;;;;;;13.12;100.00;97082.50;5047363;28;20025;-77
2024/02/26 09:47:48;;;;;;;1.92;1.05;;;;;;;13.52;100.00;97073.81;5041502;28;20096;-75
2024/02/26 09:50:17;;;;;;;2.42;1.30;;;;;;;14.08;100.00;97081.31;5043052;28;20014;-75
2024/02/26 09:52:43;;;;;;;1.77;1.13;;;;;;;14.32;100.00;97068.03;5045375;28;20021;-75
2024/02/26 09:55:09;;;;;;;1.35;0.93;;;;;;;14.66;100.00;97084.69;5067398;28;20036;-76
2024/02/26 09:57:37;;;;;;;2.13;1.00;;;;;;;14.21;100.00;97067.22;5045248;28;20025;-75
2024/02/26 10:00:05;;;;;;;1.67;0.90;;;;;;;13.99;100.00;97091.91;5044068;28;20025;-75
2024/02/26 10:02:32;;;;;;;1.42;0.80;;;;;;;13.68;100.00;97095.59;5045478;28;20197;-77
2024/02/26 10:05:01;;;;;;;1.48;0.98;;;;;;;13.30;100.00;97094.84;5042565;28;20032;-73
2024/02/26 10:07:29;;;;;;;1.90;0.80;;;;;;;12.91;100.00;97089.69;5051229;28;20021;-73
2024/02/26 10:09:55;;;;;;;1.23;0.70;;;;;;;13.07;100.00;97071.59;5046424;28;20025;-73
2024/02/26 10:12:21;;;;;;;0.65;0.55;;;;;;;13.46;100.00;97084.88;5042167;28;20029;-74
2024/02/26 10:14:47;;;;;;;2.20;0.70;;;;;;;14.01;100.00;97095.16;5041643;28;20345;-73
2024/02/26 10:17:13;;;;;;;2.28;0.60;;;;;;;14.72;100.00;97095.59;5043722;28;20026;-73
2024/02/26 10:19:38;;;;;;;0.80;0.47;;;;;;;15.26;100.00;97086.84;5045419;28;20067;-73
2024/02/26 10:22:04;;;;;;;1.40;0.70;;;;;;;15.27;100.00;97100.19;5045100;28;20025;-73
2024/02/26 10:24:30;;;;;;;0.95;0.60;;;;;;;15.12;100.00;97103.75;5041547;28;20021;-73
2024/02/26 10:26:56;;;;;;;1.38;0.80;;;;;;;14.60;100.00;97104.84;5044954;28;20025;-73
2024/02/26 10:29:24;;;;;;;1.88;0.80;;;;;;;14.98;100.00;97097.22;5046696;28;20198;-73
2024/02/26 10:31:51;;;;;;;2.83;0.85;;;;;;;16.03;100.00;97100.22;5040964;28;20093;-73
2024/02/26 10:34:17;;;;;;;1.30;1.00;;;;;;;16.17;100.00;97104.00;5039767;28;20017;-73
2024/02/26 10:36:43;;;;;;;1.13;0.80;;;;;;;16.17;100.00;97118.44;5036683;28;20099;-74
2024/02/26 10:39:09;;;;;;;1.35;0.82;;;;;;;15.98;100.00;97125.59;5041699;28;20022;-73
2024/02/26 10:41:35;;;;;;;1.65;0.82;;;;;;;15.79;100.00;97111.78;5046231;28;20067;-73
2024/02/26 10:44:00;;;;;;;2.00;0.80;;;;;;;16.08;100.00;97119.28;5042678;28;20041;-73
2024/02/26 10:46:26;;;;;;;1.85;1.13;;;;;;;17.14;100.00;97106.03;5041156;28;20033;-73
2024/02/26 10:48:52;;;;;;;1.67;0.90;;;;;;;19.65;100.00;97097.06;5048131;28;20498;-74
2024/02/26 10:51:21;;;;;;;1.83;0.90;;;;;;;22.79;83.78;97075.06;5041908;28;20021;-74
2024/02/26 10:53:49;;;;;;;;;;;;;;;24.91;72.12;97093.66;5038952;28;20029;-73
2024/02/26 10:56:16;;;;;;;0.70;0.60;;;;;;;25.41;64.77;97083.63;5037488;28;19905;-72
2024/02/26 10:58:42;;;;;;;0.88;0.50;;;;;;;25.32;55.36;97080.94;5041045;28;20025;-70
2024/02/26 11:01:08;;;;;;;1.95;0.65;;;;;;;25.98;56.24;97097.44;5042316;28;20379;-70
2024/02/26 11:03:36;;;;;;;0.77;0.70;;;;;;;25.12;55.80;97096.41;5040234;28;20037;-70
2024/02/26 11:06:03;;;;;;;1.40;0.80;;;;;;;24.23;55.23;97105.72;5041797;28;20052;-69
2024/02/26 11:08:30;;;;;;;1.33;0.80;;;;;;;23.81;57.46;97097.28;5042058;28;20039;-69
2024/02/26 11:10:56;;;;;;;0.90;0.60;;;;;;;24.63;56.56;97085.94;5039102;28;20025;-69
2024/02/26 11:13:26;;;;;;;1.65;0.70;;;;;;;26.58;51.92;97092.22;5040558;28;20043;-69
2024/02/26 11:15:54;;;;;;;1.38;0.65;;;;;;;27.83;49.29;97083.03;5038120;28;20030;-69
2024/02/26 11:18:23;;;;;;;1.85;0.70;;;;;;;28.50;47.03;97091.38;5037183;28;20033;-69
2024/02/26 11:20:49;;;;;;;0.95;0.60;;;;;;;29.64;45.60;97082.63;5040633;28;20089;-69
2024/02/26 11:23:15;;;;;;;0.80;0.60;;;;;;;29.26;42.41;97097.38;5040549;28;20029;-69
2024/02/26 11:25:40;;;;;;;0.80;0.47;;;;;;;29.48;43.28;97104.19;5046591;28;20048;-69
2024/02/26 11:28:12;;;;;;;1.60;0.40;;;;;;;30.74;40.95;97107.09;5050495;28;20021;-69